createdAt,value
2018-05-08T00:00:27.568Z,14.60
2018-05-08T00:02:55.024Z,14.50
2018-05-08T00:05:22.468Z,14.40
2018-05-08T00:07:49.919Z,14.40
2018-05-08T00:10:17.363Z,14.40
2018-05-08T00:12:44.822Z,14.40
2018-05-08T00:15:12.261Z,14.30
2018-05-08T00:17:39.711Z,14.30
2018-05-08T00:20:07.937Z,14.20
2018-05-08T00:22:35.383Z,14.20
2018-05-08T00:25:02.827Z,14.20
2018-05-08T00:27:30.271Z,14.20
2018-05-08T00:29:57.707Z,14.10
2018-05-08T00:32:25.928Z,14.10
2018-05-08T00:34:53.383Z,14.00
2018-05-08T00:37:20.831Z,14.00
2018-05-08T00:39:48.276Z,14.00
2018-05-08T00:42:15.714Z,13.90
2018-05-08T00:44:43.158Z,13.90
2018-05-08T00:47:11.371Z,13.70
2018-05-08T00:49:38.803Z,13.70
2018-05-08T00:52:06.256Z,13.80
2018-05-08T00:54:46.272Z,13.70
2018-05-08T00:57:13.719Z,13.70
2018-05-08T00:59:41.167Z,13.70
2018-05-08T01:02:08.615Z,13.60
2018-05-08T01:04:36.063Z,13.50
2018-05-08T01:07:03.524Z,13.50
2018-05-08T01:09:30.963Z,13.40
2018-05-08T01:11:58.425Z,13.40
2018-05-08T01:14:25.863Z,13.30
2018-05-08T01:16:53.319Z,13.30
2018-05-08T01:19:20.769Z,13.30
2018-05-08T01:21:48.984Z,13.20
2018-05-08T01:24:16.423Z,13.20
2018-05-08T01:26:43.872Z,13.10
2018-05-08T01:29:11.311Z,13.20
2018-05-08T01:31:39.551Z,13.10
2018-05-08T01:34:06.977Z,13.10
2018-05-08T02:18:49.095Z,12.50
2018-05-08T02:21:16.559Z,12.50
2018-05-08T02:23:44.010Z,12.50
2018-05-08T02:26:11.444Z,12.40
2018-05-08T02:28:38.900Z,12.40
2018-05-08T02:31:06.351Z,12.40
2018-05-08T02:33:33.798Z,12.40
2018-05-08T02:36:01.239Z,12.30
2018-05-08T02:38:28.686Z,12.30
2018-05-08T02:40:56.123Z,12.30
2018-05-08T02:43:24.343Z,12.20
2018-05-08T02:45:51.780Z,12.20
2018-05-08T02:48:19.224Z,12.10
2018-05-08T02:50:47.436Z,12.10
2018-05-08T02:53:14.896Z,12.10
2018-05-08T02:55:42.324Z,12.10
2018-05-08T02:58:09.784Z,12.10
2018-05-08T03:00:37.218Z,12.10
2018-05-08T03:03:05.435Z,12.00
2018-05-08T03:05:32.876Z,12.00
2018-05-08T03:08:00.327Z,12.10
2018-05-08T03:10:27.772Z,12.00
2018-05-08T03:12:55.984Z,11.90
2018-05-08T03:15:23.428Z,11.90
2018-05-08T03:17:50.875Z,12.00
2018-05-08T03:20:18.323Z,12.00
2018-05-08T03:22:45.779Z,12.00
2018-05-08T03:25:13.987Z,11.90
2018-05-08T03:27:41.519Z,11.80
2018-05-08T03:30:08.960Z,11.90
2018-05-08T03:32:37.184Z,11.80
2018-05-08T03:35:04.632Z,11.80
2018-05-08T03:37:32.080Z,11.70
2018-05-08T03:39:59.520Z,11.70
2018-05-08T03:42:26.986Z,11.70
2018-05-08T03:44:54.435Z,11.60
2018-05-08T03:47:21.879Z,11.50
2018-05-08T04:42:18.822Z,11.30
2018-05-08T04:44:46.281Z,11.40
2018-05-08T04:47:13.715Z,11.40
2018-05-08T04:49:41.163Z,11.40
2018-05-08T04:52:08.604Z,11.50
2018-05-08T04:54:36.821Z,11.60
2018-05-08T04:57:04.263Z,11.60
2018-05-08T04:59:32.478Z,11.80
2018-05-08T05:01:59.916Z,11.80
2018-05-08T05:04:27.372Z,11.90
2018-05-08T05:06:54.824Z,12.00
2018-05-08T05:09:22.268Z,12.10
2018-05-08T05:11:49.707Z,12.20
2018-05-08T05:14:17.159Z,12.20
2018-05-08T05:16:44.638Z,12.40
2018-05-08T05:19:12.815Z,12.40
2018-05-08T05:21:40.268Z,12.40
2018-05-08T05:24:07.719Z,12.50
2018-05-08T05:26:35.151Z,12.60
2018-05-08T05:29:02.619Z,12.60
2018-05-08T05:31:30.112Z,12.70
2018-05-08T05:33:58.281Z,12.90
2018-05-08T05:36:25.735Z,12.80
2018-05-08T05:38:53.188Z,12.90
2018-05-08T05:41:20.635Z,13.00
2018-05-08T05:43:48.094Z,13.10
2018-05-08T05:46:15.531Z,13.20
2018-05-08T05:48:43.011Z,13.30
2018-05-08T05:51:10.439Z,13.30
2018-05-08T05:53:37.879Z,13.40
2018-05-08T05:56:06.104Z,13.40
2018-05-08T05:58:34.308Z,13.40
2018-05-08T06:01:01.764Z,13.40
2018-05-08T06:03:29.207Z,13.50
2018-05-08T06:05:56.662Z,13.60
2018-05-08T06:08:24.103Z,13.70
2018-05-08T06:10:51.552Z,13.80
2018-05-08T06:13:18.999Z,13.90
2018-05-08T06:15:46.447Z,14.00
2018-05-08T06:18:14.025Z,14.10
2018-05-08T06:20:41.482Z,14.20
2018-05-08T06:23:08.923Z,14.20
2018-05-08T06:25:36.380Z,14.30
2018-05-08T06:28:03.824Z,14.30
2018-05-08T06:30:32.044Z,14.50
2018-05-08T06:32:59.494Z,14.50
2018-05-08T06:35:26.936Z,14.60
2018-05-08T06:37:54.376Z,14.60
2018-05-08T06:40:22.593Z,14.70
2018-05-08T06:42:50.036Z,14.60
2018-05-08T06:45:17.488Z,14.80
2018-05-08T06:47:44.932Z,14.90
2018-05-08T06:50:12.376Z,15.10
2018-05-08T06:52:40.587Z,15.20
2018-05-08T06:55:08.051Z,15.20
2018-05-08T06:57:35.489Z,15.20
2018-05-08T07:00:02.948Z,15.30
2018-05-08T07:02:30.404Z,15.40
2018-05-08T07:04:58.021Z,15.60
2018-05-08T07:07:25.488Z,15.70
2018-05-08T07:09:53.712Z,15.80
2018-05-08T07:12:21.171Z,15.80
2018-05-08T07:14:48.635Z,16.00
2018-05-08T07:17:16.093Z,16.40
2018-05-08T07:19:43.568Z,17.10
2018-05-08T07:22:11.004Z,17.90
2018-05-08T07:24:38.461Z,18.50
2018-05-08T07:27:05.912Z,18.90
2018-05-08T07:29:33.373Z,19.40
2018-05-08T07:32:00.828Z,19.70
2018-05-08T07:34:28.267Z,20.40
2018-05-08T07:36:55.734Z,20.60
2018-05-08T07:39:23.184Z,21.10
2018-05-08T07:41:50.636Z,21.70
2018-05-08T07:44:18.080Z,21.40
2018-05-08T07:46:45.519Z,21.20
2018-05-08T07:49:13.739Z,21.60
2018-05-08T07:51:41.211Z,21.60
2018-05-08T07:54:08.652Z,22.10
2018-05-08T07:56:36.100Z,22.60
2018-05-08T07:59:03.552Z,22.90
2018-05-08T08:01:31.757Z,22.40
2018-05-08T08:03:59.209Z,22.40
2018-05-08T08:06:26.660Z,22.60
2018-05-08T08:08:54.120Z,22.30
2018-05-08T08:11:21.559Z,22.50
2018-05-08T08:13:49.017Z,22.80
2018-05-08T08:16:16.461Z,24.20
2018-05-08T08:18:43.932Z,24.90
2018-05-08T08:21:11.375Z,24.90
2018-05-08T08:23:38.823Z,25.20
2018-05-08T08:26:06.268Z,25.20
2018-05-08T08:28:34.483Z,26.00
2018-05-08T08:31:01.965Z,25.90
2018-05-08T08:33:29.425Z,26.40
2018-05-08T08:35:56.876Z,26.90
2018-05-08T08:38:24.331Z,26.80
2018-05-08T08:40:51.856Z,27.40
2018-05-08T08:43:19.253Z,28.00
2018-05-08T08:45:46.701Z,28.60
2018-05-08T08:48:14.152Z,28.70
2018-05-08T08:50:41.608Z,28.60
2018-05-08T08:53:09.060Z,28.80
2018-05-08T08:55:36.509Z,29.90
2018-05-08T08:58:03.963Z,29.30
2018-05-08T09:00:31.409Z,28.80
2018-05-08T09:02:58.872Z,29.10
2018-05-08T09:05:26.328Z,29.50
2018-05-08T09:07:53.793Z,29.00
2018-05-08T09:10:21.288Z,29.00
2018-05-08T09:12:48.697Z,28.60
2018-05-08T09:15:16.142Z,28.40
2018-05-08T09:17:43.602Z,28.60
2018-05-08T09:20:11.045Z,29.10
2018-05-08T09:22:38.492Z,28.70
2018-05-08T09:25:06.706Z,29.10
2018-05-08T09:27:34.224Z,29.10
2018-05-08T09:30:01.624Z,28.30
2018-05-08T09:32:29.093Z,28.00
2018-05-08T09:34:56.546Z,27.90
2018-05-08T09:37:23.984Z,28.40
2018-05-08T09:39:51.445Z,28.60
2018-05-08T09:42:18.896Z,28.50
2018-05-08T09:44:46.352Z,29.40
2018-05-08T09:47:13.797Z,30.30
2018-05-08T09:49:41.249Z,30.60
2018-05-08T09:52:08.701Z,29.40
2018-05-08T09:54:36.146Z,29.20
2018-05-08T09:57:04.356Z,30.10
2018-05-08T09:59:31.877Z,30.00
2018-05-08T10:02:00.093Z,30.00
2018-05-08T10:04:27.552Z,29.90
2018-05-08T10:06:55.001Z,30.40
2018-05-08T10:09:22.476Z,31.30
2018-05-08T10:11:49.920Z,31.50
2018-05-08T10:14:17.385Z,31.30
2018-05-08T10:16:44.829Z,31.20
2018-05-08T10:19:12.289Z,31.40
2018-05-08T10:21:39.750Z,31.10
2018-05-08T10:24:07.208Z,31.80
2018-05-08T10:26:34.669Z,31.40
2018-05-08T10:29:02.129Z,31.70
2018-05-08T10:31:29.569Z,32.10
2018-05-08T10:33:57.032Z,31.90
2018-05-08T10:36:24.491Z,32.10
2018-05-08T10:38:51.944Z,31.60
2018-05-08T10:41:19.401Z,31.70
2018-05-08T10:43:46.865Z,30.80
2018-05-08T10:46:14.311Z,31.40
2018-05-08T10:48:41.771Z,31.80
2018-05-08T10:51:09.228Z,32.80
2018-05-08T10:53:36.693Z,32.50
2018-05-08T10:56:04.154Z,32.40
2018-05-08T10:58:31.600Z,33.00
2018-05-08T11:00:59.948Z,33.30
2018-05-08T11:03:28.178Z,32.60
2018-05-08T11:05:55.624Z,32.60
2018-05-08T11:08:23.094Z,33.10
2018-05-08T11:10:50.542Z,33.60
2018-05-08T11:13:18.273Z,33.10
2018-05-08T11:15:45.725Z,32.20
2018-05-08T11:18:13.176Z,32.40
2018-05-08T11:20:40.628Z,32.30
2018-05-08T11:23:08.844Z,33.10
2018-05-08T11:25:36.284Z,33.00
2018-05-08T11:28:03.744Z,33.30
2018-05-08T11:30:31.187Z,33.00
2018-05-08T11:32:58.631Z,33.60
2018-05-08T11:35:26.852Z,33.40
2018-05-08T11:37:54.292Z,33.40
2018-05-08T11:40:21.747Z,33.90
2018-05-08T11:42:49.184Z,34.50
2018-05-08T11:45:16.642Z,34.20
2018-05-08T11:47:44.079Z,34.00
2018-05-08T11:50:12.308Z,32.70
2018-05-08T11:52:39.755Z,32.60
2018-05-08T11:55:07.204Z,32.40
2018-05-08T11:57:34.648Z,32.30
2018-05-08T12:00:02.108Z,32.30
2018-05-08T12:02:29.587Z,32.10
2018-05-08T12:04:57.026Z,32.40
2018-05-08T12:07:24.464Z,32.90
2018-05-08T12:09:52.685Z,33.30
2018-05-08T12:12:20.125Z,33.30
2018-05-08T12:14:47.600Z,33.10
2018-05-08T12:17:15.793Z,33.40
2018-05-08T12:19:43.244Z,33.40
2018-05-08T12:22:10.691Z,33.10
2018-05-08T12:24:38.144Z,32.40
2018-05-08T12:27:05.590Z,32.30
2018-05-08T12:29:33.053Z,32.40
2018-05-08T12:32:00.503Z,32.90
2018-05-08T12:34:27.978Z,33.30
2018-05-08T12:36:55.413Z,33.30
2018-05-08T12:39:22.872Z,33.20
2018-05-08T12:41:50.313Z,32.20
2018-05-08T12:44:17.770Z,33.20
2018-05-08T12:46:45.212Z,34.50
2018-05-08T12:49:12.665Z,33.80
2018-05-08T12:51:40.880Z,33.10
2018-05-08T12:54:08.332Z,33.10
2018-05-08T12:56:35.777Z,33.30
2018-05-08T12:59:03.250Z,32.80
2018-05-08T13:01:30.701Z,33.20
2018-05-08T13:03:58.169Z,33.40
2018-05-08T13:06:25.608Z,33.50
2018-05-08T13:08:53.064Z,34.30
2018-05-08T13:11:20.534Z,34.60
2018-05-08T13:13:47.976Z,33.90
2018-05-08T13:16:15.422Z,33.30
2018-05-08T13:18:42.884Z,33.30
2018-05-08T13:21:10.333Z,33.70
2018-05-08T13:23:37.779Z,33.70
2018-05-08T13:26:06.000Z,34.50
2018-05-08T13:28:33.453Z,34.50
2018-05-08T13:31:00.979Z,34.50
2018-05-08T13:33:28.372Z,34.80
2018-05-08T13:35:55.819Z,34.30
2018-05-08T13:38:23.268Z,34.30
2018-05-08T13:40:50.725Z,33.70
2018-05-08T13:43:18.165Z,33.40
2018-05-08T13:45:45.619Z,33.30
2018-05-08T13:48:13.101Z,33.70
2018-05-08T13:50:41.288Z,32.90
2018-05-08T13:53:08.735Z,32.90
2018-05-08T13:55:36.179Z,32.30
2018-05-08T13:58:03.629Z,31.20
2018-05-08T14:00:31.081Z,31.10
2018-05-08T14:02:58.528Z,31.50
2018-05-08T14:05:25.986Z,31.50
2018-05-08T14:07:53.481Z,31.50
2018-05-08T14:10:20.958Z,32.10
2018-05-08T14:12:48.540Z,32.40
2018-05-08T14:15:16.030Z,32.70
2018-05-08T14:17:43.575Z,32.30
2018-05-08T14:20:11.059Z,32.20
2018-05-08T14:22:38.551Z,32.60
2018-05-08T14:25:06.796Z,30.40
2018-05-08T14:27:35.009Z,30.20
2018-05-08T14:30:02.482Z,30.20
2018-05-08T14:32:30.698Z,30.00
2018-05-08T14:34:58.152Z,30.00
2018-05-08T14:37:25.652Z,29.10
2018-05-08T14:39:53.182Z,29.20
2018-05-08T14:42:20.628Z,29.30
2018-05-08T14:44:48.085Z,29.80
2018-05-08T14:47:15.536Z,29.60
2018-05-08T14:49:43.005Z,30.00
2018-05-08T14:52:10.614Z,30.20
2018-05-08T14:54:38.066Z,29.70
2018-05-08T14:57:05.531Z,29.80
2018-05-08T14:59:33.784Z,29.70
2018-05-08T15:02:01.297Z,29.60
2018-05-08T15:04:28.839Z,29.20
2018-05-08T15:06:56.241Z,29.40
2018-05-08T15:09:23.691Z,29.20
2018-05-08T15:11:51.231Z,28.80
2018-05-08T15:14:18.815Z,28.80
2018-05-08T15:16:46.278Z,28.70
2018-05-08T15:19:13.732Z,28.10
2018-05-08T15:21:41.280Z,27.50
2018-05-08T15:24:08.753Z,27.10
2018-05-08T15:26:36.212Z,26.70
2018-05-08T15:29:03.729Z,26.30
2018-05-08T15:31:31.119Z,26.10
2018-05-08T15:34:01.708Z,25.80
2018-05-08T15:36:29.531Z,25.70
2018-05-08T15:38:57.098Z,25.60
2018-05-08T15:41:24.553Z,25.20
2018-05-08T15:43:52.006Z,24.60
2018-05-08T15:46:19.464Z,24.60
2018-05-08T15:48:46.943Z,24.70
2018-05-08T15:51:15.181Z,24.40
2018-05-08T15:53:42.659Z,24.40
2018-05-08T15:56:10.116Z,24.40
2018-05-08T15:58:37.567Z,24.20
2018-05-08T16:01:05.096Z,24.10
2018-05-08T16:03:32.629Z,24.10
2018-05-08T16:06:00.320Z,23.90
2018-05-08T16:08:27.637Z,23.80
2018-05-08T16:10:55.864Z,23.70
2018-05-08T16:13:23.329Z,23.70
2018-05-08T16:15:50.814Z,23.70
2018-05-08T16:18:19.030Z,23.70
2018-05-08T16:20:46.557Z,23.70
2018-05-08T16:23:14.769Z,23.30
2018-05-08T16:25:43.001Z,23.20
2018-05-08T16:28:11.226Z,23.00
2018-05-08T16:30:38.687Z,23.00
2018-05-08T16:33:06.142Z,22.90
2018-05-08T16:35:33.604Z,22.90
2018-05-08T16:38:01.080Z,22.90
2018-05-08T16:40:28.589Z,22.80
2018-05-08T16:42:56.060Z,22.80
2018-05-08T16:45:23.515Z,22.60
2018-05-08T16:47:50.973Z,22.50
2018-05-08T16:50:18.438Z,22.40
2018-05-08T16:52:45.900Z,22.40
2018-05-08T16:55:13.365Z,22.40
2018-05-08T16:57:40.944Z,22.40
2018-05-08T17:00:08.408Z,22.20
2018-05-08T17:02:35.853Z,22.20
2018-05-08T17:05:03.343Z,22.10
2018-05-08T17:07:30.808Z,22.20
2018-05-08T17:09:58.272Z,22.20
2018-05-08T17:12:25.758Z,22.10
2018-05-08T17:14:53.222Z,22.00
2018-05-08T17:17:20.689Z,22.00
2018-05-08T17:19:48.149Z,21.90
2018-05-08T17:22:15.612Z,21.80
2018-05-08T17:24:43.085Z,21.80
2018-05-08T17:27:10.541Z,21.70
2018-05-08T17:29:37.997Z,21.70
2018-05-08T17:32:05.465Z,21.70
2018-05-08T17:34:33.680Z,21.60
2018-05-08T17:37:01.155Z,21.60
2018-05-08T17:39:28.598Z,21.60
2018-05-08T17:41:56.085Z,21.60
2018-05-08T17:44:23.530Z,21.60
2018-05-08T17:46:50.988Z,21.60
2018-05-08T17:49:18.445Z,21.70
2018-05-08T17:51:45.918Z,22.50
2018-05-08T17:54:13.402Z,21.60
2018-05-08T17:56:41.634Z,21.30
2018-05-08T17:59:09.101Z,21.30
2018-05-08T18:01:36.662Z,21.30
2018-05-08T18:04:04.275Z,21.30
2018-05-08T18:06:31.668Z,21.20
2018-05-08T18:08:59.143Z,21.10
2018-05-08T18:11:26.710Z,21.00
2018-05-08T18:13:54.137Z,20.90
2018-05-08T18:16:21.592Z,20.90
2018-05-08T18:18:49.155Z,20.80
2018-05-08T18:21:17.414Z,20.70
2018-05-08T18:23:44.859Z,20.60
2018-05-08T18:26:12.322Z,20.50
2018-05-08T18:28:39.760Z,20.50
2018-05-08T18:31:08.164Z,20.30
2018-05-08T18:33:35.668Z,20.20
2018-05-08T18:36:03.131Z,20.10
2018-05-08T18:38:30.595Z,20.10
2018-05-08T18:40:58.816Z,19.80
2018-05-08T18:43:26.264Z,19.70
2018-05-08T18:45:53.727Z,19.60
2018-05-08T18:48:21.178Z,19.60
2018-05-08T18:50:48.643Z,19.50
2018-05-08T18:53:16.113Z,19.40
2018-05-08T18:55:43.603Z,19.30
2018-05-08T18:58:11.057Z,19.20
2018-05-08T19:58:45.195Z,17.70
2018-05-08T20:01:12.651Z,17.70
2018-05-08T20:03:40.109Z,17.60
2018-05-08T20:06:07.560Z,17.60
2018-05-08T20:08:35.070Z,17.50
2018-05-08T20:11:03.509Z,17.40
2018-05-08T20:13:30.969Z,17.40
2018-05-08T20:15:58.424Z,17.40
2018-05-08T20:21:14.137Z,17.30
2018-05-08T20:23:41.745Z,17.30
2018-05-08T20:26:09.490Z,17.30
2018-05-08T20:28:37.599Z,17.20
2018-05-08T20:31:05.806Z,17.10
2018-05-08T20:33:33.251Z,17.10
2018-05-08T20:36:00.782Z,17.10
2018-05-08T20:38:28.143Z,17.00
2018-05-08T20:40:56.347Z,16.90
2018-05-08T20:43:23.787Z,16.90
2018-05-08T20:45:51.227Z,16.80
2018-05-08T20:48:19.444Z,16.80
2018-05-08T20:50:46.875Z,16.70
2018-05-08T20:53:14.336Z,16.80
2018-05-08T20:55:41.810Z,16.80
2018-05-08T20:58:09.991Z,16.70
2018-05-08T21:00:37.433Z,16.70
2018-05-08T21:03:04.882Z,16.70
2018-05-08T21:05:32.315Z,16.60
2018-05-08T21:08:00.526Z,16.40
2018-05-08T21:10:27.974Z,16.40
2018-05-08T21:12:55.421Z,16.40
2018-05-08T21:15:22.877Z,16.30
2018-05-08T21:17:50.330Z,16.30
2018-05-08T21:20:17.767Z,16.20
2018-05-08T21:22:45.983Z,16.20
2018-05-08T21:25:13.431Z,16.10
2018-05-08T21:27:46.599Z,16.10
2018-05-08T21:30:19.816Z,16.10
2018-05-08T21:32:47.265Z,16.10
2018-05-08T21:35:14.695Z,16.10
2018-05-08T21:37:42.906Z,16.10
2018-05-08T21:40:10.346Z,16.00
2018-05-08T21:42:37.792Z,15.90
2018-05-08T21:45:05.995Z,15.90
2018-05-08T21:47:33.440Z,15.90
2018-05-08T21:50:00.878Z,15.80
2018-05-08T21:52:29.091Z,15.80
2018-05-08T21:54:56.548Z,15.80
2018-05-08T21:57:24.007Z,15.80
2018-05-08T21:59:51.446Z,15.60
2018-05-08T22:02:18.888Z,15.60
2018-05-08T22:04:46.335Z,15.60
2018-05-08T22:07:14.543Z,15.60
2018-05-08T22:09:41.990Z,15.60
2018-05-08T22:12:09.427Z,15.60
2018-05-08T22:14:36.875Z,15.60
2018-05-08T22:17:05.084Z,15.50
2018-05-08T22:19:32.551Z,15.50
2018-05-08T22:21:59.991Z,15.50
2018-05-08T22:24:27.448Z,15.40
2018-05-08T22:26:54.890Z,15.30
2018-05-08T22:29:22.335Z,15.30
2018-05-08T22:31:50.539Z,15.20
2018-05-08T22:34:17.995Z,15.20
2018-05-08T22:36:45.436Z,15.10
2018-05-08T22:39:12.879Z,15.10
2018-05-08T22:41:41.091Z,15.10
2018-05-08T22:44:08.540Z,15.10
2018-05-08T22:46:36.028Z,15.10
2018-05-08T22:49:03.673Z,15.10
2018-05-08T22:51:31.172Z,15.10
2018-05-08T22:53:58.651Z,15.10
2018-05-08T22:56:26.242Z,15.10
2018-05-08T22:58:53.854Z,15.10
2018-05-08T23:01:21.283Z,15.10
2018-05-08T23:03:48.739Z,15.10
2018-05-08T23:06:16.179Z,15.00
2018-05-08T23:08:43.717Z,14.90
2018-05-08T23:11:11.079Z,14.90
2018-05-08T23:13:38.535Z,14.90
2018-05-08T23:16:05.975Z,14.90
2018-05-08T23:18:33.419Z,14.80
2018-05-08T23:21:00.864Z,14.80
2018-05-08T23:23:29.083Z,14.80
2018-05-08T23:25:56.519Z,14.80
2018-05-08T23:28:23.976Z,14.80
2018-05-08T23:30:51.411Z,14.70
2018-05-08T23:33:19.628Z,14.50
2018-05-08T23:35:47.069Z,14.50
2018-05-08T23:38:14.515Z,14.50
2018-05-08T23:40:41.960Z,14.40
2018-05-08T23:43:10.175Z,14.10
2018-05-08T23:45:37.612Z,14.10
2018-05-08T23:48:05.067Z,14.10
2018-05-08T23:50:32.511Z,14.00
2018-05-08T23:53:00.752Z,14.00
2018-05-08T23:55:28.207Z,14.00
2018-05-08T23:57:55.672Z,13.90
